This is the latest recevied weather packets stored in our database for station/object WX7EM. If no packets are shown the sender has not sent any weather packets the latest 10 day(s).
| Time | Temp. | Humidity | Pressure | Rain* | Wind** | Luminosity | Snow |
|---|---|---|---|---|---|---|---|
| 1777775691 | 16.11° C | 81% | 1009.8 hPa | 0 mm | - | 8 W/m² | - |
| 1777775388 | 16.11° C | 84% | 1010.6 hPa | 0 mm | - | 8 W/m² | - |
| 1777775084 | 16.67° C | 83% | 1010.8 hPa | 0 mm | - | 8 W/m² | - |
| 1777774779 | 16.67° C | 80% | 1010.3 hPa | 0 mm | - | 7 W/m² | - |
| 1777774476 | 16.67° C | 80% | 1010.9 hPa | 0 mm | - | 7 W/m² | - |
| 1777774174 | 16.67° C | 79% | 1011 hPa | 0 mm | - | 6 W/m² | - |
| 1777773871 | 16.67° C | 80% | 1011.2 hPa | 0 mm | - | 5 W/m² | - |
| 1777773567 | 16.67° C | 80% | 1011.2 hPa | 0 mm | - | 5 W/m² | - |
| 1777773264 | 16.67° C | 80% | 1011 hPa | 0 mm | - | 6 W/m² | - |
| 1777772960 | 16.67° C | 80% | 1010.9 hPa | 0 mm | - | 6 W/m² | - |
| 1777772658 | 16.67° C | 81% | 1011.2 hPa | 0 mm | - | 7 W/m² | - |
| 1777772356 | 16.67° C | 81% | 1011.3 hPa | 0 mm | - | 7 W/m² | - |
| 1777772052 | 16.67° C | 81% | 1011.1 hPa | 0 mm | - | 9 W/m² | - |
| 1777771749 | 16.67° C | 80% | 1011.2 hPa | 0 mm | - | 10 W/m² | - |
| 1777771447 | 17.22° C | 82% | 1011.1 hPa | 0 mm | - | 11 W/m² | - |
| 1777771143 | 17.22° C | 81% | 1011.4 hPa | 0 mm | - | 13 W/m² | - |
| 1777770840 | 17.22° C | 80% | 1011.5 hPa | 0 mm | - | 16 W/m² | - |
| 1777770537 | 17.22° C | 78% | 1011.5 hPa | 0 mm | - | 18 W/m² | - |
| 1777770234 | 17.78° C | 78% | 1011.8 hPa | 0 mm | - | 21 W/m² | - |
| 1777769931 | 17.78° C | 76% | 1011.5 hPa | 0 mm | - | 24 W/m² | - |
| 1777769629 | 18.33° C | 74% | 1011.5 hPa | 0 mm | - | 28 W/m² | - |
| 1777769324 | 18.33° C | 72% | 1011.2 hPa | 0 mm | - | 32 W/m² | - |
| 1777769022 | 18.33° C | 70% | 1011.4 hPa | 0 mm | - | 37 W/m² | - |
| 1777768719 | 18.89° C | 70% | 1011.5 hPa | 0 mm | - | 48 W/m² | - |
| 1777768416 | 18.89° C | 69% | 1011.4 hPa | 0 mm | - | 65 W/m² | - |
* Rain latest hour (hover to see other rain measurements)
** Current wind speed in m/s (hover to see current wind gust speed)